Time;durP1;ratioP1;P1;durP2;ratioP2;P2;SDS_P1;SDS_P2;PMS_P1;PMS_P2;Temp;Humidity;BMP_temperature;BMP_pressure;BME280_temperature;BME280_humidity;BME280_pressure;Samples;Min_cycle;Max_cycle;Signal;HPM_P1;HPM_P2
2022/10/30 00:00:58;;;;;;;11.87;5.20;;;19.20;1.00;;;;;;5017342;28;20174;-85
2022/10/30 00:03:23;;;;;;;10.67;5.77;;;19.20;1.00;;;;;;5016209;28;20267;-88
2022/10/30 00:05:50;;;;;;;12.50;6.33;;;19.40;1.00;;;;;;5016191;28;20223;-85
2022/10/30 00:08:18;;;;;;;12.40;5.70;;;19.40;1.00;;;;;;5015410;28;20272;-85
2022/10/30 00:10:45;;;;;;;14.20;5.60;;;19.50;1.00;;;;;;5014942;28;20594;-87
2022/10/30 00:13:12;;;;;;;13.57;6.13;;;19.40;1.00;;;;;;5015644;28;20247;-85
2022/10/30 00:15:38;;;;;;;15.53;5.60;;;19.50;1.00;;;;;;5015851;28;20187;-86
2022/10/30 00:18:04;;;;;;;13.13;5.63;;;19.50;1.00;;;;;;5016786;28;20179;-85
2022/10/30 00:20:30;;;;;;;18.53;6.13;;;19.40;1.00;;;;;;5016035;28;20176;-85
2022/10/30 00:22:56;;;;;;;12.30;5.90;;;19.40;1.00;;;;;;5026404;28;20184;-86
2022/10/30 00:25:23;;;;;;;12.40;5.80;;;19.40;1.00;;;;;;5037920;28;20228;-84
2022/10/30 00:27:48;;;;;;;12.27;5.50;;;19.10;1.00;;;;;;5036764;28;20173;-85
2022/10/30 00:30:15;;;;;;;15.33;5.60;;;19.00;1.00;;;;;;5036985;28;20164;-84
2022/10/30 00:32:44;;;;;;;11.80;5.80;;;18.80;1.00;;;;;;5044730;28;20195;-85
2022/10/30 00:35:13;;;;;;;10.90;5.40;;;18.70;1.00;;;;;;5044882;28;20229;-85
2022/10/30 00:37:39;;;;;;;14.23;6.10;;;18.70;1.00;;;;;;5037330;28;20180;-86
2022/10/30 00:40:15;;;;;;;12.73;5.80;;;18.80;1.00;;;;;;5034729;28;20168;-85
2022/10/30 00:42:46;;;;;;;14.50;5.60;;;18.80;1.00;;;;;;5024937;28;20542;-85
2022/10/30 00:45:14;;;;;;;15.13;5.90;;;18.70;1.00;;;;;;5014879;28;20644;-86
2022/10/30 00:47:51;;;;;;;10.37;5.47;;;18.60;1.00;;;;;;5013734;28;20182;-87
2022/10/30 00:50:20;;;;;;;12.37;5.37;;;18.50;1.00;;;;;;5015943;28;20181;-88
2022/10/30 00:52:53;;;;;;;11.53;5.83;;;18.50;1.00;;;;;;5014007;28;20224;-85
2022/10/30 00:55:23;;;;;;;12.23;5.60;;;18.50;1.00;;;;;;5014135;28;20175;-84
2022/10/30 00:57:51;;;;;;;13.83;6.03;;;18.80;1.00;;;;;;5015353;28;20296;-86
2022/10/30 01:00:22;;;;;;;13.30;6.57;;;18.90;1.00;;;;;;5014389;28;20182;-85
2022/10/30 01:02:49;;;;;;;12.67;5.80;;;19.00;1.00;;;;;;5026371;28;20500;-84
2022/10/30 01:05:17;;;;;;;14.00;6.47;;;19.00;1.00;;;;;;5036492;28;20194;-85
2022/10/30 01:07:43;;;;;;;13.50;5.67;;;19.10;1.00;;;;;;5036980;28;20187;-84
2022/10/30 01:10:10;;;;;;;12.23;5.90;;;19.10;1.00;;;;;;5034187;28;20171;-84
2022/10/30 01:12:37;;;;;;;14.17;6.07;;;18.90;1.00;;;;;;5033062;28;20676;-85
2022/10/30 01:15:03;;;;;;;14.03;6.40;;;19.00;1.00;;;;;;5032980;28;20202;-84
2022/10/30 01:18:03;;;;;;;13.67;6.20;;;19.10;1.00;;;;;;5034263;28;20173;-86
2022/10/30 01:20:34;;;;;;;13.40;6.07;;;19.00;1.00;;;;;;5033877;28;20642;-85
2022/10/30 01:23:34;;;;;;;12.70;6.27;;;18.90;1.00;;;;;;5032952;28;20643;-85
2022/10/30 01:26:24;;;;;;;12.40;6.70;;;18.70;1.00;;;;;;5032834;28;20178;-84
2022/10/30 01:28:59;;;;;;;10.53;5.77;;;18.60;1.00;;;;;;5032483;28;20213;-84
2022/10/30 01:31:49;;;;;;;12.53;6.50;;;18.60;1.00;;;;;;5032876;28;20179;-85
2022/10/30 01:34:27;;;;;;;12.97;6.73;;;18.60;1.00;;;;;;5034808;28;20572;-85
2022/10/30 01:36:59;;;;;;;10.43;5.80;;;18.60;1.00;;;;;;5036044;28;20166;-87
2022/10/30 01:39:40;;;;;;;15.53;6.53;;;18.50;1.00;;;;;;5032834;28;20258;-83
2022/10/30 01:42:47;;;;;;;12.40;6.93;;;18.50;1.00;;;;;;5033668;28;20187;-84
2022/10/30 01:45:25;;;;;;;10.73;6.27;;;18.50;1.00;;;;;;5035084;28;20180;-84
2022/10/30 01:48:07;;;;;;;14.93;7.20;;;18.50;1.00;;;;;;5036283;28;20184;-85
2022/10/30 01:50:43;;;;;;;13.20;7.27;;;18.50;1.00;;;;;;5038162;28;20183;-85
2022/10/30 01:53:28;;;;;;;12.77;6.30;;;18.60;1.00;;;;;;5032587;28;20226;-84
2022/10/30 01:56:14;;;;;;;14.57;6.43;;;18.50;1.00;;;;;;5040630;28;20179;-85
2022/10/30 01:58:53;;;;;;;13.30;6.70;;;18.50;1.00;;;;;;5028506;28;20184;-85
2022/10/30 02:01:20;;;;;;;11.60;6.13;;;18.40;1.00;;;;;;5031488;28;20201;-84
2022/10/30 02:03:46;;;;;;;14.57;6.47;;;18.40;1.00;;;;;;5031849;28;20174;-84
2022/10/30 02:06:12;;;;;;;14.07;7.13;;;18.30;1.00;;;;;;5031467;28;20172;-84
2022/10/30 02:08:38;;;;;;;13.70;6.23;;;18.30;1.00;;;;;;5032196;28;20186;-85
2022/10/30 02:11:04;;;;;;;12.93;6.30;;;18.30;1.00;;;;;;5025738;28;20191;-84
2022/10/30 02:13:30;;;;;;;13.27;6.77;;;18.40;1.00;;;;;;5012513;28;20257;-85
2022/10/30 02:15:57;;;;;;;18.37;6.27;;;18.40;1.00;;;;;;5012070;28;20182;-84
2022/10/30 02:18:23;;;;;;;18.50;6.93;;;18.30;1.00;;;;;;5012388;28;20218;-84
2022/10/30 02:20:49;;;;;;;13.83;7.00;;;18.30;1.00;;;;;;5012351;28;20190;-84
2022/10/30 02:23:17;;;;;;;14.03;6.70;;;18.30;1.00;;;;;;5011760;28;20287;-85
2022/10/30 02:25:44;;;;;;;12.70;6.03;;;18.20;1.00;;;;;;5012201;28;20173;-84
2022/10/30 02:28:11;;;;;;;13.57;6.80;;;18.10;1.40;;;;;;5012555;28;20176;-85
2022/10/30 02:30:38;;;;;;;14.53;6.50;;;18.00;4.20;;;;;;5012271;28;20363;-83
2022/10/30 02:33:03;;;;;;;14.30;7.03;;;18.10;2.10;;;;;;5020619;28;20285;-85
2022/10/30 02:35:29;;;;;;;13.43;6.60;;;18.10;2.70;;;;;;5031504;28;20644;-83
2022/10/30 02:37:55;;;;;;;12.70;5.97;;;18.10;3.80;;;;;;5031630;28;20208;-84
2022/10/30 02:40:21;;;;;;;12.47;6.20;;;18.20;1.00;;;;;;5031566;28;20683;-86
2022/10/30 02:42:54;;;;;;;12.23;6.63;;;18.30;1.00;;;;;;5033953;28;20178;-84
2022/10/30 02:45:21;;;;;;;13.03;6.67;;;18.20;1.00;;;;;;5037440;28;20178;-85
2022/10/30 02:47:47;;;;;;;18.43;6.63;;;18.40;1.00;;;;;;5058774;28;20175;-85
2022/10/30 02:50:13;;;;;;;14.10;6.57;;;18.40;1.00;;;;;;5059807;28;20179;-86
2022/10/30 02:52:39;;;;;;;13.70;6.97;;;18.40;1.00;;;;;;5059686;28;20229;-85
2022/10/30 02:55:05;;;;;;;10.67;6.50;;;18.40;1.00;;;;;;5059131;28;20160;-85
2022/10/30 02:57:32;;;;;;;16.87;7.13;;;18.40;1.00;;;;;;5055179;28;20194;-84
2022/10/30 03:00:01;;;;;;;15.50;7.23;;;18.50;1.00;;;;;;5051205;28;20184;-86
2022/10/30 03:02:36;;;;;;;18.13;6.77;;;18.40;1.00;;;;;;5035501;28;20248;-84
2022/10/30 03:05:02;;;;;;;12.33;7.13;;;18.30;1.00;;;;;;5033941;28;20294;-84
2022/10/30 03:07:28;;;;;;;17.57;7.03;;;18.20;1.00;;;;;;5034116;28;20179;-85
2022/10/30 03:09:53;;;;;;;17.13;7.50;;;18.20;1.00;;;;;;5034233;28;20185;-84
2022/10/30 03:12:20;;;;;;;14.07;6.47;;;18.10;1.00;;;;;;5018757;28;20212;-84
2022/10/30 03:14:46;;;;;;;14.43;6.90;;;17.90;3.00;;;;;;5014518;28;20638;-83
2022/10/30 03:17:11;;;;;;;14.77;7.00;;;17.90;7.00;;;;;;5014413;28;20178;-84
2022/10/30 03:19:37;;;;;;;14.33;6.60;;;17.90;7.90;;;;;;5014575;28;20193;-84
2022/10/30 03:22:03;;;;;;;16.27;7.10;;;17.90;6.80;;;;;;5033621;28;20623;-83
2022/10/30 03:24:28;;;;;;;15.93;7.17;;;18.00;7.30;;;;;;5034124;28;20175;-85
2022/10/30 03:26:54;;;;;;;11.87;6.53;;;18.10;5.90;;;;;;5019198;28;20269;-84
2022/10/30 03:29:20;;;;;;;12.40;7.03;;;18.10;4.70;;;;;;5024406;28;20185;-85
2022/10/30 03:31:45;;;;;;;17.23;7.03;;;18.10;1.00;;;;;;5026376;28;20612;-83
2022/10/30 03:34:11;;;;;;;14.43;7.43;;;18.10;1.00;;;;;;5014506;28;20224;-83
2022/10/30 03:36:37;;;;;;;17.33;7.37;;;18.10;1.40;;;;;;5014350;28;20188;-85
2022/10/30 03:39:03;;;;;;;13.07;7.00;;;18.00;2.70;;;;;;5015675;28;20226;-87
2022/10/30 03:41:29;;;;;;;19.57;7.57;;;18.10;3.90;;;;;;5014347;28;20522;-85
2022/10/30 03:43:54;;;;;;;12.50;7.53;;;18.10;3.70;;;;;;5014031;28;20718;-85
2022/10/30 03:46:20;;;;;;;17.07;7.83;;;18.00;5.80;;;;;;5014305;28;20206;-85
2022/10/30 03:48:48;;;;;;;16.50;7.33;;;17.90;7.80;;;;;;5029567;28;20192;-85
2022/10/30 03:51:15;;;;;;;15.10;6.97;;;17.80;8.40;;;;;;5033893;28;20184;-85
2022/10/30 03:53:40;;;;;;;17.50;7.30;;;17.90;10.10;;;;;;5032638;28;20684;-85
2022/10/30 03:56:06;;;;;;;16.57;7.23;;;17.90;9.70;;;;;;5034003;28;20193;-86
2022/10/30 03:58:32;;;;;;;15.33;7.47;;;18.00;7.50;;;;;;5035212;28;20183;-86
2022/10/30 04:01:05;;;;;;;15.07;7.63;;;18.10;3.70;;;;;;5035978;28;20183;-86
2022/10/30 04:03:32;;;;;;;13.10;7.17;;;18.20;1.70;;;;;;5036462;28;20178;-88
2022/10/30 04:05:57;;;;;;;15.07;7.67;;;18.20;1.00;;;;;;5053682;28;20187;-85
2022/10/30 04:08:23;;;;;;;15.40;7.13;;;18.20;1.20;;;;;;5057737;28;20188;-84
2022/10/30 04:10:49;;;;;;;13.70;7.47;;;18.30;1.00;;;;;;5058109;28;20170;-86
2022/10/30 04:13:16;;;;;;;15.87;8.10;;;18.30;1.00;;;;;;5058330;28;20212;-84
2022/10/30 04:15:48;;;;;;;14.87;7.50;;;18.30;1.00;;;;;;5044370;28;20200;-85
2022/10/30 04:18:16;;;;;;;15.13;7.23;;;18.20;1.00;;;;;;5042117;28;20180;-84
2022/10/30 04:20:45;;;;;;;14.33;7.10;;;18.30;1.00;;;;;;5033648;28;20176;-85
2022/10/30 04:23:34;;;;;;;14.57;7.20;;;18.30;1.00;;;;;;5033264;28;20166;-85
2022/10/30 04:26:00;;;;;;;15.67;7.23;;;18.20;1.00;;;;;;5033610;28;20183;-86
2022/10/30 04:28:26;;;;;;;14.63;7.50;;;18.20;1.00;;;;;;5035602;28;20658;-88
2022/10/30 04:30:52;;;;;;;14.00;7.60;;;18.20;1.00;;;;;;5034724;28;20240;-88
2022/10/30 04:33:18;;;;;;;19.10;7.63;;;18.20;1.00;;;;;;5034028;28;20307;-85
2022/10/30 04:35:43;;;;;;;15.20;7.30;;;18.10;1.00;;;;;;5034660;28;20576;-85
2022/10/30 04:38:12;;;;;;;14.03;7.80;;;18.20;1.00;;;;;;5032208;28;20173;-85
2022/10/30 04:40:40;;;;;;;15.67;7.67;;;18.10;1.00;;;;;;5031931;28;20205;-85
2022/10/30 04:43:07;;;;;;;19.27;7.20;;;18.10;1.00;;;;;;5032967;28;20270;-87
2022/10/30 04:45:33;;;;;;;16.07;8.20;;;18.10;1.00;;;;;;5015554;28;20174;-85
2022/10/30 04:48:07;;;;;;;15.27;7.43;;;18.00;1.00;;;;;;5012454;28;20213;-85
2022/10/30 04:50:34;;;;;;;16.40;7.67;;;18.00;1.00;;;;;;5027744;28;20196;-85
2022/10/30 04:53:05;;;;;;;16.53;7.13;;;17.90;1.00;;;;;;5034268;28;20213;-86
2022/10/30 04:55:33;;;;;;;12.07;7.23;;;17.80;1.00;;;;;;5033987;28;20204;-87
2022/10/30 04:58:01;;;;;;;14.67;8.40;;;17.80;1.70;;;;;;5040133;28;20190;-86
2022/10/30 05:00:28;;;;;;;15.40;7.43;;;17.70;4.70;;;;;;5040282;28;20206;-89
2022/10/30 05:02:54;;;;;;;16.93;7.43;;;17.60;10.10;;;;;;5036705;28;20173;-87
2022/10/30 05:05:20;;;;;;;13.53;6.83;;;17.50;13.40;;;;;;5032928;28;20716;-87
2022/10/30 05:07:45;;;;;;;15.30;7.57;;;17.40;17.70;;;;;;5033864;28;20260;-86
2022/10/30 05:10:17;;;;;;;10.77;6.63;;;17.40;19.60;;;;;;5033369;28;20174;-85
2022/10/30 05:12:44;;;;;;;18.33;6.90;;;17.30;22.30;;;;;;5033878;28;20274;-87
2022/10/30 05:15:11;;;;;;;13.43;7.53;;;17.30;22.50;;;;;;5034646;28;20170;-87
2022/10/30 05:17:37;;;;;;;13.40;7.27;;;17.40;21.40;;;;;;5033576;28;20268;-86
2022/10/30 05:20:04;;;;;;;14.07;6.43;;;17.50;20.70;;;;;;5035280;28;20220;-86
2022/10/30 05:22:30;;;;;;;18.43;7.33;;;17.50;16.10;;;;;;5035200;28;20173;-85
2022/10/30 05:24:55;;;;;;;16.27;7.53;;;17.60;12.10;;;;;;5037856;28;20193;-85
2022/10/30 05:27:21;;;;;;;15.40;7.97;;;17.60;10.70;;;;;;5034169;28;20176;-85
2022/10/30 05:29:46;;;;;;;14.57;7.20;;;17.50;10.30;;;;;;5026858;28;20179;-85
2022/10/30 05:32:12;;;;;;;13.27;6.60;;;17.60;9.00;;;;;;5031910;28;20194;-86
2022/10/30 05:34:38;;;;;;;13.10;6.70;;;17.50;9.80;;;;;;5036365;28;20544;-85
2022/10/30 05:37:03;;;;;;;15.10;7.40;;;17.30;15.10;;;;;;5021637;28;20628;-85
2022/10/30 05:39:29;;;;;;;15.37;7.37;;;17.20;21.60;;;;;;5013931;28;20621;-86
2022/10/30 05:41:55;;;;;;;13.60;7.33;;;17.20;23.90;;;;;;5018812;28;20660;-84
2022/10/30 05:44:20;;;;;;;17.13;7.37;;;17.30;24.60;;;;;;5032329;28;20187;-86
2022/10/30 05:46:47;;;;;;;15.07;8.07;;;17.20;24.90;;;;;;5033850;28;20166;-86
2022/10/30 05:49:12;;;;;;;11.90;7.00;;;17.40;24.40;;;;;;5039309;28;20204;-85
2022/10/30 05:51:39;;;;;;;15.57;7.67;;;17.30;23.50;;;;;;5037450;28;20179;-86
2022/10/30 05:54:06;;;;;;;15.97;7.27;;;17.30;23.20;;;;;;5024310;28;20205;-86
2022/10/30 05:56:31;;;;;;;18.70;7.77;;;17.40;21.20;;;;;;5013916;28;20202;-87
2022/10/30 05:58:58;;;;;;;16.80;7.73;;;17.40;19.70;;;;;;5015344;28;20173;-85
2022/10/30 06:01:23;;;;;;;14.30;7.63;;;17.40;20.20;;;;;;5032888;28;20220;-85
2022/10/30 06:03:49;;;;;;;11.97;6.90;;;17.40;19.50;;;;;;5032568;28;20188;-84
2022/10/30 06:06:15;;;;;;;13.03;7.17;;;17.30;20.30;;;;;;5033255;28;20219;-84
2022/10/30 06:08:41;;;;;;;14.93;7.30;;;17.40;20.70;;;;;;5032980;28;20643;-86
2022/10/30 06:11:07;;;;;;;15.63;7.97;;;17.20;20.70;;;;;;5031892;28;20189;-85
2022/10/30 06:13:32;;;;;;;13.53;7.37;;;17.30;14.70;;;;;;5031759;28;20210;-86
2022/10/30 06:15:58;;;;;;;18.17;8.53;;;17.40;10.00;;;;;;5033385;28;20179;-86
2022/10/30 06:18:24;;;;;;;17.53;7.60;;;17.50;7.60;;;;;;5030682;28;20178;-84
2022/10/30 06:20:49;;;;;;;16.10;7.60;;;17.40;8.30;;;;;;5016157;28;20538;-87
2022/10/30 06:23:15;;;;;;;18.43;8.17;;;17.30;8.50;;;;;;5018750;28;20209;-83
2022/10/30 06:25:41;;;;;;;20.97;9.00;;;17.30;10.40;;;;;;5039369;28;20166;-86
2022/10/30 06:28:09;;;;;;;16.40;7.50;;;17.20;11.30;;;;;;5045713;28;20256;-86
2022/10/30 06:30:35;;;;;;;13.20;7.50;;;17.10;14.00;;;;;;5054690;28;20167;-85
2022/10/30 06:33:03;;;;;;;17.43;7.83;;;16.90;19.90;;;;;;5059261;28;20223;-85
2022/10/30 06:35:29;;;;;;;13.47;7.80;;;17.10;24.30;;;;;;5059499;28;20165;-85
2022/10/30 06:37:58;;;;;;;18.97;8.37;;;17.00;26.40;;;;;;5035278;28;20622;-85
2022/10/30 06:40:25;;;;;;;14.87;7.37;;;17.00;27.30;;;;;;5035253;28;20179;-85
2022/10/30 06:42:52;;;;;;;13.57;7.53;;;17.10;26.00;;;;;;5035993;28;20184;-84
2022/10/30 06:45:19;;;;;;;17.23;8.50;;;17.10;22.00;;;;;;5035781;28;20217;-86
2022/10/30 06:47:46;;;;;;;16.60;8.17;;;17.20;16.40;;;;;;5036567;28;20198;-84
2022/10/30 06:50:14;;;;;;;15.20;7.73;;;17.10;17.90;;;;;;5036027;28;20250;-83
2022/10/30 06:52:41;;;;;;;16.57;8.60;;;17.10;21.80;;;;;;5035510;28;20292;-83
2022/10/30 06:55:07;;;;;;;19.03;8.70;;;17.00;23.30;;;;;;5035578;28;20273;-82
2022/10/30 06:57:33;;;;;;;16.83;9.13;;;17.10;23.40;;;;;;5035025;28;20294;-84
2022/10/30 06:59:59;;;;;;;18.07;9.63;;;17.10;23.50;;;;;;5030050;28;20282;-82
2022/10/30 07:02:24;;;;;;;16.70;8.50;;;17.10;23.30;;;;;;5017741;28;20234;-84
2022/10/30 07:04:50;;;;;;;17.30;8.77;;;17.10;22.60;;;;;;5025872;28;20285;-85
2022/10/30 07:07:16;;;;;;;18.40;8.63;;;17.20;22.00;;;;;;5030509;28;20170;-90
2022/10/30 07:09:45;;;;;;;19.67;8.73;;;17.30;19.80;;;;;;5015489;28;20332;-87
2022/10/30 07:12:11;;;;;;;16.10;9.73;;;17.40;18.10;;;;;;5016364;28;20175;-85
2022/10/30 07:14:38;;;;;;;16.73;9.33;;;17.50;15.80;;;;;;5015699;28;20182;-87
2022/10/30 07:17:04;;;;;;;15.43;8.83;;;17.40;6.70;;;;;;5015253;28;20588;-86
2022/10/30 07:19:30;;;;;;;17.40;9.57;;;17.50;2.20;;;;;;5015607;28;20187;-89
2022/10/30 07:21:56;;;;;;;16.17;8.63;;;17.30;3.40;;;;;;5015607;28;20174;-84
2022/10/30 07:24:22;;;;;;;17.73;8.40;;;17.40;4.70;;;;;;5016397;28;20185;-87
2022/10/30 07:26:47;;;;;;;23.93;8.47;;;17.40;4.80;;;;;;5015721;28;20202;-87
2022/10/30 07:29:13;;;;;;;16.73;7.90;;;17.40;4.00;;;;;;5014691;28;20185;-87
2022/10/30 07:31:40;;;;;;;14.60;8.63;;;17.30;5.40;;;;;;5016051;28;20174;-86
2022/10/30 07:34:06;;;;;;;17.33;8.60;;;17.30;6.50;;;;;;5014732;28;20541;-84
2022/10/30 07:36:32;;;;;;;15.43;8.60;;;17.30;6.20;;;;;;5014530;28;20174;-85
2022/10/30 07:38:58;;;;;;;21.27;8.80;;;17.30;7.60;;;;;;5023894;28;20181;-89
2022/10/30 07:41:23;;;;;;;15.87;8.33;;;17.40;5.20;;;;;;5035170;28;20179;-85
2022/10/30 07:43:50;;;;;;;18.63;8.60;;;17.30;7.80;;;;;;5034872;28;20181;-88
2022/10/30 07:46:16;;;;;;;17.43;8.50;;;17.40;9.20;;;;;;5042883;28;20163;-87
2022/10/30 07:48:41;;;;;;;15.43;8.17;;;17.40;7.20;;;;;;5056223;28;20234;-87
2022/10/30 07:51:07;;;;;;;18.97;8.73;;;17.40;9.10;;;;;;5053274;28;20176;-87
2022/10/30 07:53:33;;;;;;;16.67;8.70;;;17.50;6.10;;;;;;5054012;28;20230;-84
2022/10/30 07:55:58;;;;;;;14.03;8.30;;;17.60;1.70;;;;;;5047605;28;20201;-85
2022/10/30 07:58:27;;;;;;;18.73;9.27;;;17.60;2.40;;;;;;5047520;28;20185;-86
2022/10/30 08:00:53;;;;;;;14.33;8.23;;;17.40;8.30;;;;;;5035793;28;20183;-85
2022/10/30 08:03:19;;;;;;;16.23;9.13;;;17.50;12.00;;;;;;5034727;28;20240;-86
2022/10/30 08:05:51;;;;;;;16.47;9.10;;;17.50;12.60;;;;;;5034796;28;20228;-88
2022/10/30 08:08:16;;;;;;;16.43;9.30;;;17.60;12.40;;;;;;5034870;28;20280;-85
2022/10/30 08:10:42;;;;;;;15.60;8.73;;;17.70;7.50;;;;;;5036177;28;20643;-88
2022/10/30 08:13:08;;;;;;;13.20;8.00;;;17.90;3.80;;;;;;5034045;28;20236;-85
2022/10/30 08:15:33;;;;;;;13.60;8.17;;;18.00;1.00;;;;;;5033296;28;20230;-88
2022/10/30 08:18:00;;;;;;;17.27;8.63;;;18.10;1.00;;;;;;5033971;28;20661;-89
2022/10/30 08:20:25;;;;;;;14.67;7.93;;;18.20;1.00;;;;;;5035639;28;20172;-86
2022/10/30 08:22:53;;;;;;;19.17;8.70;;;18.10;1.00;;;;;;5033579;28;20196;-85
2022/10/30 08:25:21;;;;;;;20.37;8.70;;;18.10;1.00;;;;;;5033913;28;20657;-85
2022/10/30 08:27:58;;;;;;;19.23;9.30;;;18.20;1.00;;;;;;5034904;28;20177;-85
2022/10/30 08:30:29;;;;;;;18.90;9.20;;;18.30;1.00;;;;;;5033835;28;20169;-84
2022/10/30 08:33:00;;;;;;;19.07;9.50;;;18.20;1.00;;;;;;5034401;28;20259;-83
2022/10/30 08:35:26;;;;;;;20.03;9.90;;;17.90;1.00;;;;;;5031784;28;20171;-85
2022/10/30 08:37:59;;;;;;;19.50;9.47;;;17.80;1.00;;;;;;5034480;28;20218;-83
2022/10/30 08:40:26;;;;;;;16.13;9.53;;;17.80;1.00;;;;;;5033304;28;20173;-85
2022/10/30 08:42:52;;;;;;;16.37;8.73;;;17.80;1.00;;;;;;5032871;28;20176;-85
2022/10/30 08:45:21;;;;;;;17.37;9.23;;;17.90;1.00;;;;;;5032937;28;20184;-82
2022/10/30 08:47:47;;;;;;;16.37;8.57;;;18.10;1.00;;;;;;5032306;28;20166;-85
2022/10/30 08:50:13;;;;;;;16.60;8.40;;;18.00;1.00;;;;;;5032059;28;20662;-86
2022/10/30 08:52:39;;;;;;;16.70;8.80;;;18.10;1.00;;;;;;5034474;28;20202;-88
2022/10/30 08:55:05;;;;;;;16.43;8.00;;;18.00;1.00;;;;;;5035056;28;20176;-87
2022/10/30 08:57:36;;;;;;;18.13;9.33;;;17.90;1.00;;;;;;5032290;28;20197;-88
2022/10/30 09:00:02;;;;;;;15.80;8.83;;;18.00;1.00;;;;;;5032947;28;20266;-84
2022/10/30 09:02:28;;;;;;;15.60;9.60;;;18.20;1.00;;;;;;5033281;28;20175;-88
2022/10/30 09:04:54;;;;;;;21.33;11.23;;;18.40;1.00;;;;;;5033681;28;20343;-89
2022/10/30 09:07:19;;;;;;;18.53;9.43;;;18.50;1.00;;;;;;5034548;28;20313;-85
2022/10/30 09:09:45;;;;;;;19.87;9.97;;;18.50;1.00;;;;;;5033426;28;20176;-84
2022/10/30 09:12:10;;;;;;;20.70;9.93;;;18.40;1.00;;;;;;5032614;28;20648;-85
2022/10/30 09:14:36;;;;;;;18.73;10.07;;;18.30;1.00;;;;;;5032186;28;20647;-85
2022/10/30 09:17:02;;;;;;;15.17;9.60;;;18.40;1.00;;;;;;5032248;28;20253;-86
2022/10/30 09:19:27;;;;;;;19.30;10.77;;;18.50;1.00;;;;;;5034409;28;20326;-86
2022/10/30 09:21:54;;;;;;;19.33;10.43;;;18.50;1.00;;;;;;5034095;28;20199;-83
2022/10/30 09:24:20;;;;;;;21.27;10.10;;;18.80;1.00;;;;;;5033759;28;20185;-84
2022/10/30 09:26:45;;;;;;;17.43;10.53;;;19.00;1.00;;;;;;5032205;28;20179;-86
2022/10/30 09:29:11;;;;;;;19.30;9.90;;;19.20;1.00;;;;;;5033024;28;20632;-85
2022/10/30 09:31:37;;;;;;;18.70;9.57;;;19.30;1.00;;;;;;5034316;28;20191;-88
2022/10/30 09:34:02;;;;;;;18.97;9.93;;;19.40;1.00;;;;;;5032410;28;20223;-83
2022/10/30 09:36:28;;;;;;;20.33;9.63;;;19.50;1.00;;;;;;5033399;28;20193;-84
2022/10/30 09:38:54;;;;;;;18.03;9.03;;;19.60;1.00;;;;;;5033737;28;20211;-85
2022/10/30 09:41:47;;;;;;;16.93;9.40;;;19.60;1.00;;;;;;5033391;28;20203;-85
2022/10/30 09:44:47;;;;;;;21.13;9.60;;;19.70;1.00;;;;;;5033478;28;20266;-84
2022/10/30 09:47:20;;;;;;;16.63;8.90;;;19.80;1.00;;;;;;5032577;28;20180;-86
2022/10/30 09:50:04;;;;;;;17.47;8.53;;;20.00;1.00;;;;;;5033956;28;20168;-84
2022/10/30 09:52:52;;;;;;;15.83;8.10;;;20.10;1.00;;;;;;5037783;28;20197;-88
2022/10/30 09:55:37;;;;;;;17.00;8.53;;;19.90;1.00;;;;;;5041961;28;20192;-89
2022/10/30 09:58:26;;;;;;;14.23;8.57;;;19.90;1.00;;;;;;5038377;28;20219;-85
2022/10/30 10:01:07;;;;;;;14.13;8.17;;;20.00;1.00;;;;;;5036620;28;20174;-83
2022/10/30 10:03:48;;;;;;;17.70;8.67;;;20.10;1.00;;;;;;5036454;28;20181;-85
2022/10/30 10:06:19;;;;;;;15.83;8.00;;;20.20;1.00;;;;;;5038714;28;20196;-85
2022/10/30 10:08:50;;;;;;;18.50;8.43;;;20.30;1.00;;;;;;5040445;28;20173;-84
2022/10/30 10:11:44;;;;;;;16.87;8.27;;;20.20;1.00;;;;;;5056675;28;20181;-86
2022/10/30 10:14:38;;;;;;;18.07;9.03;;;20.20;1.00;;;;;;5053305;28;20215;-84
2022/10/30 10:17:11;;;;;;;19.43;8.53;;;20.20;1.00;;;;;;5056104;28;20230;-83
2022/10/30 10:19:59;;;;;;;14.07;7.87;;;20.10;1.00;;;;;;5057694;28;20257;-83
2022/10/30 10:22:50;;;;;;;16.07;8.03;;;20.30;1.00;;;;;;5056303;28;20170;-82
2022/10/30 10:25:18;;;;;;;24.90;7.87;;;20.30;1.00;;;;;;5053697;28;20248;-84
2022/10/30 10:28:35;;;;;;;17.50;8.57;;;20.20;1.00;;;;;;5041589;28;20249;-82
2022/10/30 10:31:19;;;;;;;16.97;9.27;;;20.10;1.00;;;;;;5016557;28;20221;-83
2022/10/30 10:34:22;;;;;;;19.37;8.07;;;20.10;1.00;;;;;;5033341;28;20221;-85
2022/10/30 10:37:05;;;;;;;18.87;8.40;;;20.10;1.00;;;;;;5036122;28;20168;-85
2022/10/30 10:39:39;;;;;;;20.87;8.47;;;20.00;1.00;;;;;;5036622;28;20168;-84
2022/10/30 10:42:27;;;;;;;17.70;8.57;;;20.00;1.00;;;;;;5035956;28;20191;-84
2022/10/30 10:45:21;;;;;;;18.10;9.20;;;20.00;1.00;;;;;;5035222;28;20188;-84
2022/10/30 10:48:02;;;;;;;16.97;8.33;;;20.10;1.00;;;;;;5035751;28;20238;-84
2022/10/30 10:50:37;;;;;;;16.10;8.07;;;20.20;1.00;;;;;;5035518;28;20183;-83
2022/10/30 10:53:16;;;;;;;17.17;9.33;;;20.20;1.00;;;;;;5035513;28;20314;-83
2022/10/30 10:55:45;;;;;;;17.07;9.37;;;20.20;1.00;;;;;;5035387;28;20613;-83
2022/10/30 10:58:35;;;;;;;18.40;8.77;;;20.30;1.00;;;;;;5034822;28;20185;-84
2022/10/30 11:01:01;;;;;;;20.90;8.70;;;20.30;1.00;;;;;;5034224;28;20652;-84
2022/10/30 11:03:48;;;;;;;17.10;8.20;;;20.10;1.00;;;;;;5033467;28;20641;-83
2022/10/30 11:06:32;;;;;;;17.73;9.10;;;20.00;1.00;;;;;;5034901;28;20200;-85
2022/10/30 11:09:21;;;;;;;18.30;8.10;;;20.00;1.00;;;;;;5034098;28;20176;-84
2022/10/30 11:11:54;;;;;;;17.90;8.27;;;19.90;1.00;;;;;;5035633;28;20186;-83
2022/10/30 11:14:28;;;;;;;17.50;7.60;;;20.10;1.00;;;;;;5036554;28;20340;-83
2022/10/30 11:17:14;;;;;;;16.70;8.03;;;20.00;1.00;;;;;;5037328;28;20180;-85
2022/10/30 11:19:39;;;;;;;15.00;7.67;;;20.10;1.00;;;;;;5037234;28;20185;-85
2022/10/30 11:22:41;;;;;;;14.90;7.63;;;20.10;1.00;;;;;;5037120;28;20209;-84
2022/10/30 11:25:32;;;;;;;16.60;7.53;;;20.10;1.00;;;;;;5027085;28;20187;-85
2022/10/30 11:28:04;;;;;;;14.17;6.87;;;19.90;1.00;;;;;;5051874;28;20173;-86
2022/10/30 11:30:30;;;;;;;11.90;6.47;;;19.90;1.00;;;;;;5055667;28;20159;-86
2022/10/30 11:32:57;;;;;;;10.63;6.10;;;20.00;1.00;;;;;;5039434;28;20184;-86
2022/10/30 11:35:26;;;;;;;16.20;6.20;;;19.90;1.00;;;;;;5030341;28;20182;-85
2022/10/30 11:38:15;;;;;;;13.47;6.80;;;19.90;1.00;;;;;;5028162;28;20218;-84
2022/10/30 11:40:53;;;;;;;15.17;6.23;;;20.00;1.00;;;;;;5016037;28;20186;-86
2022/10/30 11:43:26;;;;;;;12.67;5.90;;;20.00;1.00;;;;;;5023056;28;20180;-86
2022/10/30 11:45:52;;;;;;;14.50;6.37;;;20.10;1.00;;;;;;5021771;28;20789;-89
2022/10/30 11:48:28;;;;;;;15.23;6.73;;;20.20;1.00;;;;;;5016969;28;20178;-86
2022/10/30 11:50:58;;;;;;;9.73;5.37;;;20.20;1.00;;;;;;5017090;28;20182;-88
2022/10/30 11:53:33;;;;;;;12.17;6.00;;;20.20;1.00;;;;;;5016880;28;20225;-89
2022/10/30 11:56:00;;;;;;;12.07;5.87;;;20.20;1.00;;;;;;5017920;28;20271;-87
2022/10/30 11:58:37;;;;;;;13.53;6.27;;;20.30;1.00;;;;;;5015975;28;20182;-88
2022/10/30 12:01:18;;;;;;;13.33;5.23;;;20.30;1.00;;;;;;5016744;28;20173;-87
2022/10/30 12:03:44;;;;;;;13.87;6.33;;;20.30;1.00;;;;;;5016072;28;20175;-83
2022/10/30 12:06:25;;;;;;;11.93;5.60;;;20.20;1.00;;;;;;5014074;28;20634;-85
2022/10/30 12:09:02;;;;;;;12.90;6.07;;;20.30;1.00;;;;;;5015003;28;20646;-84
2022/10/30 12:11:42;;;;;;;12.03;5.90;;;20.30;1.00;;;;;;5019931;28;20187;-84
2022/10/30 12:14:20;;;;;;;11.67;5.87;;;20.50;1.00;;;;;;5015991;28;20210;-84
2022/10/30 12:16:54;;;;;;;11.83;5.73;;;20.50;1.00;;;;;;5014258;28;20172;-83
2022/10/30 12:19:23;;;;;;;15.07;6.60;;;20.50;1.00;;;;;;5014762;28;20632;-85
2022/10/30 12:21:52;;;;;;;11.53;6.00;;;20.60;1.00;;;;;;4998454;28;20193;-82
2022/10/30 12:24:36;;;;;;;13.70;6.13;;;20.60;1.00;;;;;;5018582;28;20298;-88
2022/10/30 12:27:13;;;;;;;11.67;5.73;;;20.70;1.00;;;;;;5019367;28;20179;-85
2022/10/30 12:30:02;;;;;;;12.53;5.73;;;20.70;1.00;;;;;;5014114;28;20184;-85
2022/10/30 12:32:44;;;;;;;12.63;6.40;;;20.80;1.00;;;;;;5015767;28;20180;-88
2022/10/30 12:35:28;;;;;;;10.17;5.40;;;21.10;1.00;;;;;;5020616;28;20177;-87
2022/10/30 12:37:58;;;;;;;10.50;5.73;;;21.00;1.00;;;;;;5019232;28;20692;-86
2022/10/30 12:40:29;;;;;;;15.50;5.53;;;20.90;1.00;;;;;;5019454;28;20234;-87
2022/10/30 12:43:18;;;;;;;13.70;5.87;;;21.10;1.00;;;;;;5020070;28;20207;-88
2022/10/30 12:45:47;;;;;;;11.70;5.80;;;21.10;1.00;;;;;;5015091;28;20265;-87
2022/10/30 12:48:17;;;;;;;12.40;5.33;;;21.20;1.00;;;;;;5015413;28;20198;-85
2022/10/30 12:51:12;;;;;;;14.10;5.93;;;21.20;1.00;;;;;;5014258;28;20281;-85
2022/10/30 12:53:58;;;;;;;16.67;5.80;;;21.50;1.00;;;;;;5015295;28;20231;-87
2022/10/30 12:56:30;;;;;;;12.20;5.47;;;21.60;1.00;;;;;;5015229;28;20203;-87
2022/10/30 12:59:08;;;;;;;11.50;5.77;;;21.50;1.00;;;;;;5015930;28;20280;-84
2022/10/30 13:02:09;;;;;;;13.17;5.90;;;21.60;1.00;;;;;;5014394;28;20596;-86
2022/10/30 13:04:40;;;;;;;12.77;5.80;;;21.60;1.00;;;;;;5013842;28;20203;-88